Time;durP1;ratioP1;P1;durP2;ratioP2;P2;SDS_P1;SDS_P2;PMS_P1;PMS_P2;Temp;Humidity;BMP_temperature;BMP_pressure;BME280_temperature;BME280_humidity;BME280_pressure;Samples;Min_cycle;Max_cycle;Signal;HPM_P1;HPM_P2
2022/04/29 00:00:46;;;;;;;;;23.33;20.00;;;;;16.94;43.29;102312.03;5038903;28;45318;-43
2022/04/29 00:03:13;;;;;;;;;25.00;22.67;;;;;16.86;43.51;102310.09;5038702;28;45389;-40
2022/04/29 00:05:40;;;;;;;;;30.00;26.33;;;;;16.91;43.48;102317.72;5038935;28;45384;-40
2022/04/29 00:08:08;;;;;;;;;28.00;24.33;;;;;16.89;43.70;102319.69;5039172;28;45383;-40
2022/04/29 00:10:34;;;;;;;;;28.33;24.67;;;;;16.84;43.41;102312.06;5039068;28;45242;-40
2022/04/29 00:13:01;;;;;;;;;28.00;24.00;;;;;16.82;43.55;102321.31;5038797;28;47335;-41
2022/04/29 00:15:28;;;;;;;;;30.00;24.33;;;;;16.77;43.39;102302.94;5038420;28;45862;-41
2022/04/29 00:17:54;;;;;;;;;22.33;20.33;;;;;16.73;43.65;102297.97;5038839;28;45545;-40
2022/04/29 00:20:19;;;;;;;;;33.67;23.33;;;;;16.71;43.69;102304.31;5038993;28;45349;-40
2022/04/29 00:22:45;;;;;;;;;27.33;22.33;;;;;16.68;43.53;102301.94;5038510;28;46093;-42
2022/04/29 00:25:12;;;;;;;;;33.67;26.67;;;;;16.64;43.72;102300.56;5038572;28;45298;-42
2022/04/29 00:27:40;;;;;;;;;33.33;24.33;;;;;16.59;43.88;102289.38;5038777;28;45270;-40
2022/04/29 00:30:07;;;;;;;;;26.00;23.33;;;;;16.54;43.84;102299.75;5038904;28;45756;-42
2022/04/29 00:32:32;;;;;;;;;27.33;23.67;;;;;16.52;44.13;102285.63;5038478;28;46813;-42
2022/04/29 00:34:58;;;;;;;;;27.33;22.67;;;;;16.48;43.66;102289.59;5038416;28;45308;-40
2022/04/29 00:37:23;;;;;;;;;28.00;24.00;;;;;16.45;44.40;102289.88;5038803;28;45388;-42
2022/04/29 00:39:49;;;;;;;;;32.67;25.67;;;;;16.40;44.60;102276.06;5038675;28;45319;-44
2022/04/29 00:42:21;;;;;;;;;30.33;26.00;;;;;16.32;44.24;102273.25;5038597;28;46008;-41
2022/04/29 00:44:47;;;;;;;;;23.00;20.67;;;;;16.34;44.76;102282.84;5038108;28;45508;-43
2022/04/29 00:47:17;;;;;;;;;27.67;26.33;;;;;16.29;44.71;102277.06;5038334;28;45321;-40
2022/04/29 00:49:43;;;;;;;;;29.33;25.00;;;;;16.27;44.90;102275.56;5038627;28;45327;-43
2022/04/29 00:52:12;;;;;;;;;27.67;23.33;;;;;16.24;44.81;102273.16;5038189;28;45333;-43
2022/04/29 00:54:40;;;;;;;;;32.00;27.00;;;;;16.18;44.88;102270.06;5038054;28;45333;-39
2022/04/29 00:57:09;;;;;;;;;35.33;27.67;;;;;16.15;45.10;102275.72;5038194;28;45302;-41
2022/04/29 00:59:46;;;;;;;;;31.67;30.33;;;;;16.12;45.33;102278.69;5038326;28;45372;-46
2022/04/29 01:02:13;;;;;;;;;32.00;30.67;;;;;16.09;45.43;102276.28;5038095;28;47051;-42
2022/04/29 01:04:59;;;;;;;;;37.33;25.33;;;;;16.04;45.04;102267.81;5038020;28;45895;-39
2022/04/29 01:07:27;;;;;;;;;29.67;26.00;;;;;16.04;45.63;102269.66;5038106;28;45406;-41
2022/04/29 01:09:53;;;;;;;;;38.67;31.00;;;;;15.99;45.35;102272.78;5038286;28;45356;-42
2022/04/29 01:12:18;;;;;;;;;33.00;27.67;;;;;15.97;45.80;102256.00;5037697;28;47247;-40
2022/04/29 01:14:44;;;;;;;;;27.33;25.67;;;;;15.92;45.73;102261.78;5037208;28;45302;-41
2022/04/29 01:17:14;;;;;;;;;36.33;25.00;;;;;15.92;45.59;102258.25;5037978;28;45408;-40
2022/04/29 01:19:40;;;;;;;;;34.33;28.00;;;;;15.89;46.05;102256.72;5038248;28;45439;-42
2022/04/29 01:22:07;;;;;;;;;29.33;24.00;;;;;15.85;46.28;102249.94;5037946;28;45614;-42
2022/04/29 01:24:33;;;;;;;;;37.33;30.67;;;;;15.85;45.99;102254.47;5037779;28;45342;-40
2022/04/29 01:26:58;;;;;;;;;29.67;27.33;;;;;15.83;46.22;102257.28;5037823;28;45325;-40
2022/04/29 01:29:26;;;;;;;;;36.33;29.33;;;;;15.80;46.44;102254.03;5038204;28;45218;-42
2022/04/29 01:31:53;;;;;;;;;45.00;32.33;;;;;15.76;46.15;102247.25;5037692;28;46254;-38
2022/04/29 01:34:18;;;;;;;;;38.67;32.00;;;;;15.69;46.53;102237.13;5037561;28;45407;-40
2022/04/29 01:36:43;;;;;;;;;33.33;31.00;;;;;15.66;46.27;102239.22;5038090;28;45295;-39
2022/04/29 01:39:09;;;;;;;;;46.33;32.00;;;;;15.62;46.04;102245.84;5037967;28;45465;-42
2022/04/29 01:41:34;;;;;;;;;37.00;32.33;;;;;15.56;46.06;102241.06;5037203;28;46092;-40
2022/04/29 01:44:00;;;;;;;;;36.33;31.00;;;;;15.56;46.58;102247.28;5037615;28;45385;-38
2022/04/29 01:46:25;;;;;;;;;36.33;27.33;;;;;15.52;46.43;102247.69;5037566;28;45351;-39
2022/04/29 01:48:50;;;;;;;;;51.67;32.00;;;;;15.50;46.69;102255.03;5037702;28;45357;-40
2022/04/29 01:51:16;;;;;;;;;39.67;31.33;;;;;15.47;46.57;102261.53;5037428;28;46085;-38
2022/04/29 01:53:42;;;;;;;;;46.67;33.67;;;;;15.44;46.88;102248.41;5037232;28;45487;-43
2022/04/29 01:56:07;;;;;;;;;44.00;30.67;;;;;15.37;47.03;102242.75;5037389;28;45341;-41
2022/04/29 01:58:33;;;;;;;;;37.00;27.33;;;;;15.43;47.02;102252.94;5037646;28;45175;-40
2022/04/29 02:00:58;;;;;;;;;33.00;30.33;;;;;15.41;46.93;102249.53;5036878;28;45994;-41
2022/04/29 02:03:24;;;;;;;;;38.67;33.00;;;;;15.42;47.34;102245.00;5037277;28;45246;-39
2022/04/29 02:05:49;;;;;;;;;34.67;31.33;;;;;15.37;46.83;102239.22;5037251;28;45312;-40
2022/04/29 02:08:15;;;;;;;;;34.67;28.67;;;;;15.39;47.17;102245.31;5037436;28;45279;-43
2022/04/29 02:10:40;;;;;;;;;43.67;29.67;;;;;15.28;47.13;102232.88;5036777;28;46292;-39
2022/04/29 02:13:06;;;;;;;;;34.33;34.00;;;;;15.38;47.12;102251.63;5037146;28;45321;-40
2022/04/29 02:15:31;;;;;;;;;30.67;26.00;;;;;15.33;47.41;102251.22;5037283;28;45344;-41
2022/04/29 02:17:56;;;;;;;;;33.67;28.33;;;;;15.34;47.06;102269.88;5037445;28;45408;-42
2022/04/29 02:20:22;;;;;;;;;36.33;30.33;;;;;15.33;47.29;102262.78;5037222;28;46219;-42
2022/04/29 02:22:47;;;;;;;;;34.00;32.00;;;;;15.32;47.60;102262.94;5036999;28;45359;-42
2022/04/29 02:25:13;;;;;;;;;35.33;30.33;;;;;15.31;47.62;102270.13;5036991;28;45337;-39
2022/04/29 02:27:39;;;;;;;;;38.67;32.67;;;;;15.31;47.32;102264.78;5037176;28;45459;-42
2022/04/29 02:30:05;;;;;;;;;38.00;30.33;;;;;15.27;47.19;102257.16;5036761;28;46431;-40
2022/04/29 02:32:31;;;;;;;;;35.33;29.00;;;;;15.28;47.36;102256.16;5036664;28;45461;-42
2022/04/29 02:34:58;;;;;;;;;33.33;29.00;;;;;15.25;47.47;102259.13;5037015;28;45388;-40
2022/04/29 02:37:23;;;;;;;;;31.67;26.67;;;;;15.26;47.13;102267.03;5036710;28;45489;-40
2022/04/29 02:39:49;;;;;;;;;36.00;30.67;;;;;15.25;47.63;102273.38;5036648;28;46262;-40
2022/04/29 02:42:14;;;;;;;;;35.00;28.00;;;;;15.25;47.63;102272.53;5036551;28;45195;-40
2022/04/29 02:44:39;;;;;;;;;35.67;28.00;;;;;15.24;47.31;102274.34;5036749;28;45360;-43
2022/04/29 02:47:08;;;;;;;;;34.33;32.00;;;;;15.22;47.46;102274.50;5036795;28;45321;-40
2022/04/29 02:49:44;;;;;;;;;37.33;31.67;;;;;15.19;47.50;102269.41;5036328;28;46335;-45
2022/04/29 02:52:11;;;;;;;;;30.00;27.67;;;;;15.19;46.97;102271.25;5036530;28;45534;-40
2022/04/29 02:54:37;;;;;;;;;35.00;28.33;;;;;15.15;47.58;102270.69;5036770;28;45197;-41
2022/04/29 02:57:03;;;;;;;;;31.67;30.33;;;;;15.14;47.52;102273.50;5036595;28;45294;-39
2022/04/29 02:59:28;;;;;;;;;34.00;29.33;;;;;15.13;47.68;102275.34;5036333;28;46515;-40
2022/04/29 03:01:54;;;;;;;;;41.33;32.00;;;;;15.13;47.57;102267.31;5036378;28;45321;-40
2022/04/29 03:04:19;;;;;;;;;31.67;28.33;;;;;15.14;47.49;102271.69;5036546;28;45377;-39
2022/04/29 03:06:45;;;;;;;;;36.00;32.67;;;;;15.13;47.84;102267.31;5036849;28;45159;-45
2022/04/29 03:09:11;;;;;;;;;34.33;29.67;;;;;15.11;47.66;102266.59;5036421;28;45505;-41
2022/04/29 03:11:36;;;;;;;;;43.00;31.00;;;;;15.00;48.07;102250.66;5036048;28;45513;-41
2022/04/29 03:14:02;;;;;;;;;38.33;32.67;;;;;15.11;47.40;102268.41;5036365;28;45323;-41
2022/04/29 03:16:28;;;;;;;;;47.00;32.67;;;;;15.08;47.73;102269.53;5036622;28;45431;-40
2022/04/29 03:18:53;;;;;;;;;33.67;28.33;;;;;15.05;47.45;102258.28;5036211;28;45907;-40
2022/04/29 03:21:20;;;;;;;;;40.00;30.33;;;;;15.06;47.92;102262.63;5036213;28;45552;-38
2022/04/29 03:23:46;;;;;;;;;37.33;30.67;;;;;15.02;47.33;102262.06;5036338;28;45301;-40
2022/04/29 03:26:12;;;;;;;;;36.00;28.33;;;;;14.94;47.76;102245.81;5036338;28;45546;-39
2022/04/29 03:28:37;;;;;;;;;40.00;31.33;;;;;14.98;48.04;102257.97;5035940;28;45902;-39
2022/04/29 03:31:04;;;;;;;;;35.67;27.33;;;;;14.97;47.96;102254.44;5036137;28;45246;-39
2022/04/29 03:33:29;;;;;;;;;41.67;29.67;;;;;14.93;47.90;102250.34;5036093;28;45442;-40
2022/04/29 03:35:55;;;;;;;;;33.67;31.00;;;;;14.95;47.88;102251.03;5036472;28;45327;-42
2022/04/29 03:38:20;;;;;;;;;35.67;29.00;;;;;14.95;47.69;102247.50;5038562;28;47463;-40
2022/04/29 03:40:46;;;;;;;;;36.33;30.67;;;;;14.94;47.97;102248.50;5039499;28;45455;-41
2022/04/29 03:43:14;;;;;;;;;37.00;31.33;;;;;14.89;47.92;102242.72;5039708;28;45375;-41
2022/04/29 03:45:40;;;;;;;;;34.33;31.00;;;;;14.91;47.96;102246.09;5039729;28;45305;-41
2022/04/29 03:48:05;;;;;;;;;36.67;30.00;;;;;14.91;48.02;102238.91;5039535;28;45899;-39
2022/04/29 03:50:31;;;;;;;;;32.33;21.00;;;;;14.88;47.77;102231.16;5039608;28;45522;-43
2022/04/29 03:53:00;;;;;;;;;31.67;29.67;;;;;14.89;48.19;102232.84;5040100;28;45321;-39
2022/04/29 03:55:28;;;;;;;;;44.67;32.67;;;;;14.88;47.82;102227.66;5039754;28;45397;-42
2022/04/29 03:57:54;;;;;;;;;35.00;29.00;;;;;14.88;47.86;102223.13;5038887;28;45435;-39
2022/04/29 04:00:21;;;;;;;;;32.67;28.67;;;;;14.87;48.24;102220.56;5038749;28;45373;-42
2022/04/29 04:02:46;;;;;;;;;37.33;32.67;;;;;14.84;48.13;102219.03;5039002;28;45187;-39
2022/04/29 04:05:12;;;;;;;;;40.00;33.67;;;;;14.81;48.25;102216.63;5039185;28;45275;-41
2022/04/29 04:07:38;;;;;;;;;33.33;30.33;;;;;14.83;48.45;102222.69;5038974;28;45213;-42
2022/04/29 04:10:05;;;;;;;;;31.33;27.00;;;;;14.82;47.92;102217.47;5038981;28;45324;-41
2022/04/29 04:12:47;;;;;;;;;38.67;33.00;;;;;14.77;47.96;102214.34;5038659;28;45432;-40
2022/04/29 04:15:14;;;;;;;;;37.00;30.00;;;;;14.77;47.71;102217.03;5039214;28;45353;-43
2022/04/29 04:17:40;;;;;;;;;42.67;30.33;;;;;14.70;48.38;102222.09;5038521;28;46386;-41
2022/04/29 04:20:07;;;;;;;;;34.67;24.67;;;;;14.66;48.20;102213.50;5038756;28;45359;-40
2022/04/29 04:22:36;;;;;;;;;38.00;30.00;;;;;14.68;48.53;102224.06;5039800;28;45330;-42
2022/04/29 04:25:04;;;;;;;;;41.75;35.00;;;;;14.67;48.63;102212.50;5037990;28;45285;-39
2022/04/29 04:27:30;;;;;;;;;39.00;33.75;;;;;14.63;48.52;102211.09;5038576;28;45934;-43
2022/04/29 04:29:56;;;;;;;;;37.00;30.75;;;;;14.63;48.43;102215.59;5038734;28;45293;-38
2022/04/29 04:32:22;;;;;;;;;34.00;28.00;;;;;14.61;48.72;102220.22;5038824;28;45357;-39
2022/04/29 04:34:50;;;;;;;;;34.33;30.33;;;;;14.59;48.65;102217.72;5038947;28;45268;-39
2022/04/29 04:37:17;;;;;;;;;40.75;32.50;;;;;14.59;48.82;102222.22;5038949;28;46395;-42
2022/04/29 04:39:43;;;;;;;;;35.33;30.00;;;;;14.59;48.56;102227.56;5038690;28;45535;-44
2022/04/29 04:42:09;;;;;;;;;35.67;28.33;;;;;14.59;48.72;102227.56;5039331;28;45287;-42
2022/04/29 04:44:35;;;;;;;;;41.00;33.00;;;;;14.57;48.69;102219.66;5039135;28;45180;-42
2022/04/29 04:47:00;;;;;;;;;37.33;33.67;;;;;14.53;48.67;102226.28;5039253;28;47306;-39
2022/04/29 04:49:26;;;;;;;;;39.67;31.33;;;;;14.56;48.79;102231.34;5038194;28;45313;-42
2022/04/29 04:51:51;;;;;;;;;30.33;28.67;;;;;14.45;48.51;102221.59;5039272;28;45436;-40
2022/04/29 04:54:16;;;;;;;;;39.00;31.00;;;;;14.51;48.80;102230.94;5039128;28;45340;-43
2022/04/29 04:56:41;;;;;;;;;38.25;30.75;;;;;14.53;48.92;102234.31;5038272;28;46132;-39
2022/04/29 04:59:07;;;;;;;;;41.00;31.00;;;;;14.52;48.73;102229.94;5038052;28;45371;-41
2022/04/29 05:01:32;;;;;;;;;34.50;27.25;;;;;14.51;48.17;102233.59;5038168;28;45494;-40
2022/04/29 05:03:58;;;;;;;;;37.00;28.33;;;;;14.52;48.50;102234.44;5038501;28;45330;-40
2022/04/29 05:06:23;;;;;;;;;45.00;34.00;;;;;14.52;48.75;102237.97;5037991;28;46209;-45
2022/04/29 05:08:48;;;;;;;;;39.25;32.50;;;;;14.52;48.63;102231.78;5037950;28;45360;-38
2022/04/29 05:11:14;;;;;;;;;38.25;32.25;;;;;14.52;49.05;102239.81;5038300;28;45324;-40
2022/04/29 05:13:39;;;;;;;;;30.75;25.00;;;;;14.48;48.27;102233.84;5038176;28;45476;-41
2022/04/29 05:16:05;;;;;;;;;37.25;32.25;;;;;14.47;47.93;102242.84;5037628;28;46137;-43
2022/04/29 05:18:30;;;;;;;;;34.67;29.33;;;;;14.43;48.12;102239.59;5037897;28;45276;-41
2022/04/29 05:20:56;;;;;;;;;43.67;33.67;;;;;14.45;48.53;102243.00;5053539;28;45415;-40
2022/04/29 05:23:21;;;;;;;;;40.75;31.25;;;;;14.49;48.62;102243.59;5038297;28;45325;-41
2022/04/29 05:25:46;;;;;;;;;35.33;29.33;;;;;14.48;48.52;102248.09;5037707;28;45389;-40
2022/04/29 05:28:12;;;;;;;;;30.00;28.67;;;;;14.44;48.75;102235.09;5037585;28;45468;-39
2022/04/29 05:30:38;;;;;;;;;39.33;33.67;;;;;14.51;48.59;102244.31;5037945;28;45335;-39
2022/04/29 05:33:06;;;;;;;;;38.33;31.33;;;;;14.49;48.35;102246.25;5037836;28;45265;-42
2022/04/29 05:35:33;;;;;;;;;36.00;29.33;;;;;14.52;48.36;102254.03;5037312;28;46578;-43
2022/04/29 05:38:00;;;;;;;;;45.67;34.00;;;;;14.52;48.55;102255.88;5037840;28;45349;-41
2022/04/29 05:43:09;;;;;;;;;28.33;27.33;;;;;14.54;48.31;102261.91;5037472;28;45338;-40
2022/04/29 05:45:35;;;;;;;;;40.67;31.00;;;;;14.52;48.23;102262.06;5037355;28;45332;-39
2022/04/29 05:48:00;;;;;;;;;39.00;31.67;;;;;14.55;47.94;102261.81;5037392;28;45396;-42
2022/04/29 05:50:26;;;;;;;;;38.00;29.33;;;;;14.55;48.48;102255.59;5037424;28;45423;-38
2022/04/29 05:52:51;;;;;;;;;36.67;31.33;;;;;14.55;48.37;102258.28;5037788;28;45498;-39
2022/04/29 05:55:16;;;;;;;;;40.00;30.00;;;;;14.59;48.33;102270.44;5037303;28;45516;-40
2022/04/29 05:57:42;;;;;;;;;38.67;28.33;;;;;14.61;48.35;102266.59;5037587;28;45374;-41
2022/04/29 06:00:08;;;;;;;;;34.67;29.67;;;;;14.65;48.34;102269.88;5036786;28;45380;-37
2022/04/29 06:02:33;;;;;;;;;35.67;24.00;;;;;14.68;48.20;102267.78;5037495;28;45176;-44
2022/04/29 06:05:02;;;;;;;;;39.00;26.00;;;;;14.71;48.24;102269.34;5036898;28;45967;-41
2022/04/29 06:07:28;;;;;;;;;42.00;29.33;;;;;14.72;48.06;102277.22;5037077;28;45388;-39
2022/04/29 06:09:53;;;;;;;;;45.33;32.00;;;;;14.71;48.26;102274.69;5035872;28;45450;-40
2022/04/29 06:12:18;;;;;;;;;28.00;24.00;;;;;14.81;48.08;102293.47;5037311;28;45341;-39
2022/04/29 06:14:45;;;;;;;;;34.00;26.33;;;;;14.82;47.81;102296.00;5036863;28;45377;-41
2022/04/29 06:17:14;;;;;;;;;31.33;18.67;;;;;14.85;48.12;102292.22;5037124;28;45298;-38
2022/04/29 06:19:39;;;;;;;;;38.67;28.67;;;;;14.78;47.42;102280.34;5037178;28;45206;-44
2022/04/29 06:22:05;;;;;;;;;37.33;30.33;;;;;14.87;47.41;102283.03;5037296;28;45317;-43
2022/04/29 06:24:32;;;;;;;;;36.00;28.00;;;;;14.89;47.47;102285.59;5036730;28;46288;-42
2022/04/29 06:26:57;;;;;;;;;29.67;25.33;;;;;14.86;47.29;102280.50;5036818;28;45372;-39
2022/04/29 06:29:22;;;;;;;;;37.00;26.00;;;;;14.93;47.98;102290.53;5037011;28;45321;-41
2022/04/29 06:31:48;;;;;;;;;34.67;30.00;;;;;14.96;47.70;102292.94;5037203;28;45289;-39
2022/04/29 06:34:13;;;;;;;;;33.33;29.00;;;;;15.00;47.74;102296.22;5036893;28;45415;-46
2022/04/29 06:36:38;;;;;;;;;32.67;30.00;;;;;15.05;47.37;102296.63;5037224;28;45513;-38
2022/04/29 06:39:04;;;;;;;;;31.67;28.33;;;;;15.09;47.45;102298.06;5037082;28;45278;-41
2022/04/29 06:41:30;;;;;;;;;31.67;29.00;;;;;15.13;47.17;102294.13;5037382;28;45447;-41
2022/04/29 06:43:55;;;;;;;;;34.00;27.67;;;;;14.82;47.25;102246.94;5036713;28;46289;-39
2022/04/29 06:46:24;;;;;;;;;28.67;22.33;;;;;15.20;47.16;102300.59;5036582;28;45543;-39
2022/04/29 06:48:50;;;;;;;;;30.33;24.00;;;;;15.24;47.24;102303.84;5037344;28;45312;-40
2022/04/29 06:51:15;;;;;;;;;25.33;21.67;;;;;15.26;47.08;102301.03;5037158;28;45383;-44
2022/04/29 06:53:41;;;;;;;;;35.00;27.00;;;;;15.27;47.18;102308.94;5036805;28;45734;-40
2022/04/29 06:56:06;;;;;;;;;35.33;28.00;;;;;15.23;47.14;102302.16;5036487;28;45297;-41
2022/04/29 06:58:32;;;;;;;;;31.67;28.00;;;;;15.28;46.89;102304.41;5036562;28;45524;-39
2022/04/29 07:00:57;;;;;;;;;34.67;27.33;;;;;15.28;46.57;102299.91;5036448;28;45499;-39
2022/04/29 07:03:23;;;;;;;;;40.33;33.67;;;;;15.32;47.15;102301.31;5036485;28;45443;-40
2022/04/29 07:05:51;;;;;;;;;36.33;28.00;;;;;15.31;46.93;102296.09;5036542;28;45336;-42
2022/04/29 07:08:16;;;;;;;;;39.33;32.00;;;;;15.39;47.08;102312.34;5036585;28;45466;-39
2022/04/29 07:10:42;;;;;;;;;27.67;25.67;;;;;15.40;46.80;102309.50;5036687;28;45337;-41
2022/04/29 07:13:08;;;;;;;;;41.67;33.33;;;;;15.41;46.79;102302.31;5038655;28;46090;-42
2022/04/29 07:15:34;;;;;;;;;33.67;27.00;;;;;15.35;46.50;102301.03;5039580;28;45864;-41
2022/04/29 07:17:59;;;;;;;;;33.00;30.00;;;;;15.34;46.85;102302.03;5040130;28;45229;-41
2022/04/29 07:20:25;;;;;;;;;34.33;25.00;;;;;15.31;46.89;102296.09;5040051;28;45246;-38
2022/04/29 07:22:50;;;;;;;;;35.33;26.67;;;;;15.33;46.82;102299.47;5039657;28;45931;-39
2022/04/29 07:25:16;;;;;;;;;38.00;32.00;;;;;15.42;46.94;102307.56;5039990;28;45393;-40
2022/04/29 07:27:42;;;;;;;;;42.33;30.33;;;;;15.44;46.88;102300.19;5039853;28;45286;-40
2022/04/29 07:30:08;;;;;;;;;36.00;28.67;;;;;15.50;46.84;102309.50;5039945;28;45445;-41
2022/04/29 07:32:34;;;;;;;;;37.33;32.00;;;;;15.53;46.76;102321.81;5039341;28;46410;-39
2022/04/29 07:43:12;;;;;;;;;38.00;29.67;;;;;15.58;46.91;102315.00;5039319;28;45791;-39
2022/04/29 07:45:39;;;;;;;;;41.33;32.67;;;;;15.61;46.83;102317.44;5039025;28;45307;-42
2022/04/29 07:48:06;;;;;;;;;44.50;35.75;;;;;15.62;47.01;102320.94;5039616;28;45450;-39
2022/04/29 07:50:35;;;;;;;;;40.00;32.67;;;;;15.66;46.96;102325.91;5039510;28;45298;-44
2022/04/29 07:53:03;;;;;;;;;44.67;34.00;;;;;15.73;47.20;102331.59;5038899;28;47028;-41
2022/04/29 07:55:29;;;;;;;;;46.67;36.00;;;;;15.85;47.03;102322.41;5039144;28;45327;-44
2022/04/29 07:57:54;;;;;;;;;37.67;31.00;;;;;15.94;47.10;102308.13;5039284;28;45275;-41
2022/04/29 08:00:20;;;;;;;;;37.67;30.33;;;;;16.06;46.77;102313.34;5038939;28;45553;-39
2022/04/29 08:02:45;;;;;;;;;44.33;35.00;;;;;16.13;46.78;102317.97;5039119;28;45759;-39
2022/04/29 08:05:11;;;;;;;;;49.67;35.33;;;;;16.10;46.15;102314.75;5054379;28;45724;-39
2022/04/29 08:07:37;;;;;;;;;44.00;34.00;;;;;16.10;46.49;102317.41;5039266;28;45390;-43
2022/04/29 08:10:04;;;;;;;;;43.33;32.00;;;;;16.12;46.74;102321.63;5039342;28;45325;-43
2022/04/29 08:12:29;;;;;;;;;39.67;33.67;;;;;16.14;46.70;102317.00;5038685;28;46262;-39
2022/04/29 08:14:56;;;;;;;;;52.00;37.67;;;;;16.18;46.71;102320.19;5038732;28;45290;-40
2022/04/29 08:17:22;;;;;;;;;46.33;35.00;;;;;16.25;46.56;102315.94;5039141;28;45249;-43
2022/04/29 08:19:49;;;;;;;;;41.00;31.67;;;;;16.34;46.54;102307.03;5038968;28;45457;-39
2022/04/29 08:22:17;;;;;;;;;41.67;32.67;;;;;16.55;46.38;102322.91;5038840;28;46395;-41
2022/04/29 08:24:43;;;;;;;;;43.67;34.00;;;;;16.75;45.76;102328.25;5038554;28;45163;-43
2022/04/29 08:27:09;;;;;;;;;47.33;36.67;;;;;16.93;45.24;102307.63;5038942;28;45289;-44
2022/04/29 08:29:34;;;;;;;;;52.00;38.33;;;;;17.46;44.97;102321.16;5038899;28;45443;-40
2022/04/29 08:32:00;;;;;;;;;45.67;35.33;;;;;17.76;44.10;102318.25;5038408;28;45975;-41
2022/04/29 08:34:26;;;;;;;;;43.33;34.00;;;;;17.71;43.48;102297.16;5038681;28;45512;-40
2022/04/29 08:36:51;;;;;;;;;49.33;38.00;;;;;17.91;43.52;102322.09;5038730;28;45241;-40
2022/04/29 08:39:17;;;;;;;;;43.00;36.33;;;;;18.52;42.50;102325.69;5038893;28;45273;-41
2022/04/29 08:41:42;;;;;;;;;46.33;37.33;;;;;18.64;42.32;102311.75;5038555;28;46986;-41
2022/04/29 08:44:13;;;;;;;;;47.33;36.00;;;;;18.81;42.13;102328.88;5038488;28;45261;-42
2022/04/29 08:46:40;;;;;;;;;46.00;35.33;;;;;19.05;41.55;102321.91;5036997;28;45249;-42
2022/04/29 08:49:07;;;;;;;;;39.33;34.00;;;;;19.66;40.65;102318.81;5038605;28;45353;-41
2022/04/29 08:51:36;;;;;;;;;51.67;38.00;;;;;20.91;38.97;102298.44;5038394;28;46387;-42
2022/04/29 08:54:02;;;;;;;;;46.00;34.33;;;;;21.83;38.19;102324.75;5038351;28;45464;-43
2022/04/29 08:59:12;;;;;;;;;37.67;33.67;;;;;23.45;35.50;102325.75;5038554;28;45325;-40
2022/04/29 09:01:40;;;;;;;;;45.33;35.33;;;;;24.29;33.98;102325.84;5037952;28;45709;-42
2022/04/29 09:04:06;;;;;;;;;46.00;35.33;;;;;26.31;29.48;102313.16;5038408;28;45305;-45
2022/04/29 09:06:32;;;;;;;;;41.00;34.33;;;;;28.69;27.80;102298.06;5038339;28;45323;-40
2022/04/29 09:09:08;;;;;;;;;41.67;33.00;;;;;29.27;28.06;102305.72;5038477;28;45377;-41
2022/04/29 09:11:33;;;;;;;;;40.00;33.00;;;;;28.31;27.84;102307.31;5038146;28;46142;-41
2022/04/29 09:14:18;;;;;;;;;45.33;36.67;;;;;27.11;29.37;102308.28;5038046;28;45344;-41
2022/04/29 09:16:45;;;;;;;;;42.00;35.67;;;;;26.51;29.01;102304.97;5038183;28;45447;-41
2022/04/29 09:19:31;;;;;;;;;46.67;35.00;;;;;27.83;28.45;102299.81;5038498;28;45369;-40
2022/04/29 09:22:05;;;;;;;;;38.33;35.00;;;;;27.70;28.14;102297.16;5037807;28;47559;-41
2022/04/29 09:24:31;;;;;;;;;44.33;35.33;;;;;27.80;27.78;102295.63;5037733;28;45423;-40
2022/04/29 09:27:04;;;;;;;;;46.67;38.33;;;;;28.88;26.31;102291.50;5038245;28;45320;-41
2022/04/29 09:29:29;;;;;;;;;46.33;36.00;;;;;29.50;27.33;102299.47;5038188;28;45452;-46
2022/04/29 09:32:00;;;;;;;;;47.33;36.33;;;;;30.45;24.68;102291.03;5037585;28;46193;-43
2022/04/29 09:34:50;;;;;;;;;48.00;36.33;;;;;31.23;26.33;102291.50;5037345;28;45298;-41
2022/04/29 09:37:18;;;;;;;;;50.33;38.33;;;;;31.34;22.79;102281.53;5038012;28;45409;-40
2022/04/29 09:39:53;;;;;;;;;43.25;34.25;;;;;31.46;24.45;102269.34;5038168;28;45253;-41
2022/04/29 09:42:19;;;;;;;;;48.00;37.00;;;;;31.28;23.84;102283.31;5037720;28;46076;-42
2022/04/29 09:44:45;;;;;;;;;42.50;34.75;;;;;31.26;24.21;102280.81;5037782;28;45328;-46
2022/04/29 09:47:19;;;;;;;;;40.00;33.25;;;;;31.71;24.92;102282.69;5037718;28;45336;-41
2022/04/29 09:49:53;;;;;;;;;36.50;34.25;;;;;31.89;23.25;102278.84;5037985;28;45424;-45
2022/04/29 09:52:20;;;;;;;;;40.00;33.75;;;;;31.70;24.18;102278.28;5037462;28;45383;-41
2022/04/29 09:54:45;;;;;;;;;40.75;34.00;;;;;31.37;22.51;102275.53;5037494;28;45252;-42
2022/04/29 09:57:18;;;;;;;;;45.50;34.75;;;;;31.33;23.46;102280.69;5037633;28;45313;-43
2022/04/29 09:59:46;;;;;;;;;37.50;30.25;;;;;31.59;22.45;102272.84;5037604;28;45363;-40
2022/04/29 10:02:16;;;;;;;;;40.00;32.25;;;;;31.43;22.50;102280.03;5037219;28;47297;-41
2022/04/29 10:04:43;;;;;;;;;40.50;33.50;;;;;30.65;24.28;102274.16;5037250;28;45417;-40
2022/04/29 10:07:11;;;;;;;;;35.00;31.50;;;;;29.99;25.35;102265.28;5037452;28;45270;-43
2022/04/29 10:09:40;;;;;;;;;42.25;36.50;;;;;29.03;25.04;102261.81;5037511;28;45244;-42
2022/04/29 10:12:13;;;;;;;;;37.25;32.75;;;;;28.48;25.88;102275.56;5037310;28;46279;-43
2022/04/29 10:14:40;;;;;;;;;42.00;34.25;;;;;27.85;26.53;102276.66;5037073;28;45387;-41
2022/04/29 10:23:15;;;;;;;;;37.67;33.67;;;;;26.71;28.22;102280.31;5037293;28;45391;-41
2022/04/29 10:25:42;;;;;;;;;39.67;33.00;;;;;26.41;28.47;102271.78;5036998;28;45388;-43
2022/04/29 10:28:09;;;;;;;;;40.00;34.67;;;;;26.43;28.23;102277.03;5037111;28;45383;-42
2022/04/29 10:30:38;;;;;;;;;43.33;35.00;;;;;27.05;28.14;102286.44;5037225;28;45473;-39
2022/04/29 10:33:11;;;;;;;;;34.33;30.33;;;;;27.51;28.15;102286.16;5036793;28;46179;-39
2022/04/29 10:35:39;;;;;;;;;40.00;35.00;;;;;28.21;26.24;102282.38;5037047;28;45332;-41
2022/04/29 10:38:14;;;;;;;;;34.33;31.33;;;;;28.28;27.07;102280.44;5037133;28;45434;-41
2022/04/29 10:40:40;;;;;;;;;39.33;33.67;;;;;28.07;26.32;102268.84;5037279;28;45341;-44
2022/04/29 10:43:10;;;;;;;;;38.67;33.67;;;;;28.44;25.78;102262.56;5036860;28;45366;-40
2022/04/29 10:46:01;;;;;;;;;38.67;34.33;;;;;28.91;25.82;102268.28;5036814;28;45301;-40
2022/04/29 10:48:40;;;;;;;;;37.67;31.67;;;;;29.89;24.48;102259.59;5039632;28;45336;-42
2022/04/29 10:51:15;;;;;;;;;35.75;32.50;;;;;29.82;25.79;102256.94;5040595;28;45531;-42
2022/04/29 10:53:42;;;;;;;;;31.50;30.00;;;;;29.60;25.22;102260.53;5040329;28;45989;-43
2022/04/29 10:56:26;;;;;;;;;38.50;32.00;;;;;30.28;24.94;102254.44;5040089;28;45396;-40
2022/04/29 10:59:14;;;;;;;;;33.00;30.75;;;;;30.38;23.49;102246.41;5040465;28;45385;-42
2022/04/29 11:02:00;;;;;;;;;35.00;29.50;;;;;30.94;23.81;102257.69;5040210;28;45329;-39
2022/04/29 11:04:32;;;;;;;;;37.75;33.00;;;;;30.78;24.23;102256.56;5035856;28;45406;-39
2022/04/29 11:06:57;;;;;;;;;38.25;32.00;;;;;30.33;23.95;102249.88;5040095;28;45370;-41
2022/04/29 11:09:52;;;;;;;;;35.25;28.25;;;;;30.04;25.13;102256.34;5040376;28;45369;-39
2022/04/29 11:12:34;;;;;;;;;30.50;28.25;;;;;29.91;24.39;102251.09;5039218;28;45615;-40
2022/04/29 11:15:16;;;;;;;;;36.50;31.50;;;;;30.56;23.30;102254.47;5039856;28;46239;-39
2022/04/29 11:17:43;;;;;;;;;35.75;31.00;;;;;31.20;23.03;102248.00;5039777;28;45355;-41
2022/04/29 11:20:17;;;;;;;;;33.50;31.75;;;;;31.26;23.22;102255.22;5040270;28;45521;-40
2022/04/29 11:25:50;;;;;;;;;32.25;28.50;;;;;32.78;21.55;102245.59;5040150;28;45210;-40
2022/04/29 11:28:17;;;;;;;;;30.60;28.80;;;;;33.30;20.84;102241.44;5039711;28;45230;-41
2022/04/29 11:30:42;;;;;;;;;34.50;31.25;;;;;32.74;21.51;102244.47;5040410;28;45217;-45
2022/04/29 11:33:08;;;;;;;;;28.75;25.50;;;;;32.43;21.57;102242.44;5040813;28;45668;-43